Ocontofalls, Wisconsin
Current Conditions -  °F | °C
As of 10:35 PM on Monday 20 Oct 2014 (Local Time) from KOCQ Reporting Station
Overcast Overcast  
Wind Chill:   Ceiling: 6000
Heat Index:   Visibility: 10mi
Dew Point:   Wind: 5mph
Humidity: 85%   Direction: 330°NNW
Pressure: 30.03"   Gusts: NA
Location:  44.8816°N, 88.1735°W
Report Text: KOCQ 210335Z AUTO 33004KT 10SM OVC060 07/05 A3003 RMK AO1 T00710048
Loading
Personal Weather Stations






























Interactive Weather Map
Tropical Storm Tracking
New forecast layout! Learn more

10-Day Weather Forecast

Advertisements
Track Severe Weather on mobile